sensor_id;sensor_type;location;lat;lon;timestamp;P1;durP1;ratioP1;P2;durP2;ratioP2
2728;SDS011;1372;47.956;7.830;2023-07-20T00:01:15;2.67;;;2.47;;
2728;SDS011;1372;47.956;7.830;2023-07-20T00:03:45;4.83;;;2.53;;
2728;SDS011;1372;47.956;7.830;2023-07-20T00:06:22;3.00;;;2.67;;
2728;SDS011;1372;47.956;7.830;2023-07-20T00:08:52;2.93;;;2.63;;
2728;SDS011;1372;47.956;7.830;2023-07-20T00:11:24;2.93;;;2.70;;
2728;SDS011;1372;47.956;7.830;2023-07-20T00:13:58;2.60;;;2.40;;
2728;SDS011;1372;47.956;7.830;2023-07-20T00:16:27;3.10;;;2.80;;
2728;SDS011;1372;47.956;7.830;2023-07-20T00:18:57;3.20;;;2.80;;
2728;SDS011;1372;47.956;7.830;2023-07-20T00:21:26;2.60;;;2.40;;
2728;SDS011;1372;47.956;7.830;2023-07-20T00:23:55;3.20;;;2.87;;
2728;SDS011;1372;47.956;7.830;2023-07-20T00:26:24;3.07;;;2.30;;
2728;SDS011;1372;47.956;7.830;2023-07-20T00:28:53;4.20;;;3.50;;
2728;SDS011;1372;47.956;7.830;2023-07-20T00:31:22;3.07;;;2.80;;
2728;SDS011;1372;47.956;7.830;2023-07-20T00:33:51;3.10;;;2.90;;
2728;SDS011;1372;47.956;7.830;2023-07-20T00:36:21;3.03;;;2.73;;
2728;SDS011;1372;47.956;7.830;2023-07-20T00:38:50;4.63;;;2.63;;
2728;SDS011;1372;47.956;7.830;2023-07-20T00:41:19;3.10;;;2.80;;
2728;SDS011;1372;47.956;7.830;2023-07-20T00:43:49;2.90;;;2.70;;
2728;SDS011;1372;47.956;7.830;2023-07-20T00:46:20;2.70;;;2.50;;
2728;SDS011;1372;47.956;7.830;2023-07-20T00:48:53;6.90;;;3.07;;
2728;SDS011;1372;47.956;7.830;2023-07-20T00:51:24;3.90;;;3.60;;
2728;SDS011;1372;47.956;7.830;2023-07-20T00:53:56;3.87;;;2.80;;
2728;SDS011;1372;47.956;7.830;2023-07-20T00:56:25;3.40;;;2.70;;
2728;SDS011;1372;47.956;7.830;2023-07-20T00:58:54;3.23;;;3.03;;
2728;SDS011;1372;47.956;7.830;2023-07-20T01:01:23;3.27;;;2.63;;
2728;SDS011;1372;47.956;7.830;2023-07-20T01:03:52;2.77;;;2.57;;
2728;SDS011;1372;47.956;7.830;2023-07-20T01:06:26;2.97;;;2.50;;
2728;SDS011;1372;47.956;7.830;2023-07-20T01:09:08;2.63;;;2.43;;
2728;SDS011;1372;47.956;7.830;2023-07-20T01:11:48;3.30;;;3.00;;
2728;SDS011;1372;47.956;7.830;2023-07-20T01:14:27;3.57;;;2.73;;
2728;SDS011;1372;47.956;7.830;2023-07-20T01:16:56;3.40;;;3.10;;
2728;SDS011;1372;47.956;7.830;2023-07-20T01:19:25;3.13;;;2.77;;
2728;SDS011;1372;47.956;7.830;2023-07-20T01:21:57;3.70;;;3.37;;
2728;SDS011;1372;47.956;7.830;2023-07-20T01:24:45;2.80;;;2.60;;
2728;SDS011;1372;47.956;7.830;2023-07-20T01:27:51;3.40;;;2.73;;
2728;SDS011;1372;47.956;7.830;2023-07-20T01:30:43;3.17;;;2.87;;
2728;SDS011;1372;47.956;7.830;2023-07-20T01:33:23;4.00;;;3.03;;
2728;SDS011;1372;47.956;7.830;2023-07-20T01:35:54;5.40;;;3.03;;
2728;SDS011;1372;47.956;7.830;2023-07-20T01:38:27;3.63;;;3.33;;
2728;SDS011;1372;47.956;7.830;2023-07-20T01:40:57;2.97;;;2.77;;
2728;SDS011;1372;47.956;7.830;2023-07-20T01:43:26;3.97;;;2.80;;
2728;SDS011;1372;47.956;7.830;2023-07-20T01:45:54;4.07;;;3.40;;
2728;SDS011;1372;47.956;7.830;2023-07-20T01:48:25;2.97;;;2.50;;
2728;SDS011;1372;47.956;7.830;2023-07-20T01:50:54;4.30;;;3.07;;
2728;SDS011;1372;47.956;7.830;2023-07-20T01:53:23;3.10;;;2.80;;
2728;SDS011;1372;47.956;7.830;2023-07-20T01:55:52;4.70;;;3.00;;
2728;SDS011;1372;47.956;7.830;2023-07-20T01:58:21;3.10;;;2.80;;
2728;SDS011;1372;47.956;7.830;2023-07-20T02:00:50;3.60;;;2.80;;
2728;SDS011;1372;47.956;7.830;2023-07-20T02:03:21;4.20;;;3.53;;
2728;SDS011;1372;47.956;7.830;2023-07-20T02:05:54;3.30;;;3.00;;
2728;SDS011;1372;47.956;7.830;2023-07-20T02:08:23;5.40;;;4.43;;
2728;SDS011;1372;47.956;7.830;2023-07-20T02:10:55;3.57;;;3.27;;
2728;SDS011;1372;47.956;7.830;2023-07-20T02:13:23;3.00;;;2.80;;
2728;SDS011;1372;47.956;7.830;2023-07-20T02:15:52;3.93;;;2.73;;
2728;SDS011;1372;47.956;7.830;2023-07-20T02:18:21;4.43;;;3.07;;
2728;SDS011;1372;47.956;7.830;2023-07-20T02:20:53;4.73;;;3.23;;
2728;SDS011;1372;47.956;7.830;2023-07-20T02:23:22;3.27;;;2.90;;
2728;SDS011;1372;47.956;7.830;2023-07-20T02:25:51;3.67;;;3.37;;
2728;SDS011;1372;47.956;7.830;2023-07-20T02:28:20;4.17;;;3.13;;
2728;SDS011;1372;47.956;7.830;2023-07-20T02:30:49;3.20;;;2.90;;
2728;SDS011;1372;47.956;7.830;2023-07-20T02:33:17;3.80;;;2.90;;
2728;SDS011;1372;47.956;7.830;2023-07-20T02:35:47;3.20;;;3.00;;
2728;SDS011;1372;47.956;7.830;2023-07-20T02:38:17;3.63;;;2.73;;
2728;SDS011;1372;47.956;7.830;2023-07-20T02:40:46;3.37;;;3.10;;
2728;SDS011;1372;47.956;7.830;2023-07-20T02:43:14;3.23;;;2.93;;
2728;SDS011;1372;47.956;7.830;2023-07-20T02:45:43;3.00;;;2.70;;
2728;SDS011;1372;47.956;7.830;2023-07-20T02:48:12;3.40;;;3.10;;
2728;SDS011;1372;47.956;7.830;2023-07-20T02:50:41;3.10;;;2.80;;
2728;SDS011;1372;47.956;7.830;2023-07-20T02:53:11;4.50;;;2.93;;
2728;SDS011;1372;47.956;7.830;2023-07-20T02:55:41;4.40;;;3.17;;
2728;SDS011;1372;47.956;7.830;2023-07-20T02:58:13;3.47;;;3.17;;
2728;SDS011;1372;47.956;7.830;2023-07-20T03:00:42;3.90;;;3.17;;
2728;SDS011;1372;47.956;7.830;2023-07-20T03:03:11;4.10;;;3.03;;
2728;SDS011;1372;47.956;7.830;2023-07-20T03:05:40;4.03;;;3.20;;
2728;SDS011;1372;47.956;7.830;2023-07-20T03:08:09;5.60;;;3.03;;
2728;SDS011;1372;47.956;7.830;2023-07-20T03:10:38;3.67;;;2.70;;
2728;SDS011;1372;47.956;7.830;2023-07-20T03:13:09;3.20;;;2.90;;
2728;SDS011;1372;47.956;7.830;2023-07-20T03:15:39;3.30;;;3.00;;
2728;SDS011;1372;47.956;7.830;2023-07-20T03:18:08;3.40;;;3.10;;
2728;SDS011;1372;47.956;7.830;2023-07-20T03:20:37;3.60;;;3.17;;
2728;SDS011;1372;47.956;7.830;2023-07-20T03:23:07;3.00;;;2.80;;
2728;SDS011;1372;47.956;7.830;2023-07-20T03:25:35;3.70;;;3.40;;
2728;SDS011;1372;47.956;7.830;2023-07-20T03:28:05;3.47;;;3.27;;
2728;SDS011;1372;47.956;7.830;2023-07-20T03:30:35;3.50;;;3.20;;
2728;SDS011;1372;47.956;7.830;2023-07-20T03:33:07;4.00;;;3.03;;
2728;SDS011;1372;47.956;7.830;2023-07-20T03:35:35;4.27;;;3.10;;
2728;SDS011;1372;47.956;7.830;2023-07-20T03:38:04;3.53;;;3.10;;
2728;SDS011;1372;47.956;7.830;2023-07-20T03:40:33;4.53;;;3.50;;
2728;SDS011;1372;47.956;7.830;2023-07-20T03:43:02;3.40;;;3.20;;
2728;SDS011;1372;47.956;7.830;2023-07-20T03:45:31;3.53;;;3.10;;
2728;SDS011;1372;47.956;7.830;2023-07-20T03:48:01;4.50;;;3.20;;
2728;SDS011;1372;47.956;7.830;2023-07-20T03:50:30;3.47;;;2.90;;
2728;SDS011;1372;47.956;7.830;2023-07-20T03:53:01;3.93;;;3.10;;
2728;SDS011;1372;47.956;7.830;2023-07-20T03:55:32;3.90;;;3.50;;
2728;SDS011;1372;47.956;7.830;2023-07-20T03:58:01;4.00;;;3.57;;
2728;SDS011;1372;47.956;7.830;2023-07-20T04:00:30;3.20;;;2.90;;
2728;SDS011;1372;47.956;7.830;2023-07-20T04:03:01;3.13;;;2.93;;
2728;SDS011;1372;47.956;7.830;2023-07-20T04:05:30;2.90;;;2.70;;
2728;SDS011;1372;47.956;7.830;2023-07-20T04:07:59;3.03;;;2.83;;
2728;SDS011;1372;47.956;7.830;2023-07-20T04:10:28;4.80;;;3.50;;
2728;SDS011;1372;47.956;7.830;2023-07-20T04:12:57;4.10;;;3.80;;
2728;SDS011;1372;47.956;7.830;2023-07-20T04:15:25;3.20;;;2.90;;
2728;SDS011;1372;47.956;7.830;2023-07-20T04:17:54;3.97;;;3.50;;
2728;SDS011;1372;47.956;7.830;2023-07-20T04:20:25;3.17;;;2.87;;
2728;SDS011;1372;47.956;7.830;2023-07-20T04:22:54;4.37;;;3.07;;
2728;SDS011;1372;47.956;7.830;2023-07-20T04:25:23;3.80;;;3.50;;
2728;SDS011;1372;47.956;7.830;2023-07-20T04:27:52;3.00;;;2.80;;
2728;SDS011;1372;47.956;7.830;2023-07-20T04:30:22;4.03;;;2.90;;
2728;SDS011;1372;47.956;7.830;2023-07-20T04:32:51;5.03;;;3.27;;
2728;SDS011;1372;47.956;7.830;2023-07-20T04:38:17;3.40;;;3.10;;
2728;SDS011;1372;47.956;7.830;2023-07-20T04:40:46;3.70;;;3.40;;
2728;SDS011;1372;47.956;7.830;2023-07-20T04:43:17;4.67;;;3.60;;
2728;SDS011;1372;47.956;7.830;2023-07-20T04:45:46;3.67;;;3.37;;
2728;SDS011;1372;47.956;7.830;2023-07-20T04:48:16;3.53;;;3.00;;
2728;SDS011;1372;47.956;7.830;2023-07-20T04:50:47;3.60;;;3.30;;
2728;SDS011;1372;47.956;7.830;2023-07-20T04:53:16;3.30;;;3.00;;
2728;SDS011;1372;47.956;7.830;2023-07-20T04:55:48;3.70;;;3.30;;
2728;SDS011;1372;47.956;7.830;2023-07-20T04:58:19;3.53;;;3.20;;
2728;SDS011;1372;47.956;7.830;2023-07-20T05:00:48;5.93;;;3.60;;
2728;SDS011;1372;47.956;7.830;2023-07-20T05:03:18;4.20;;;3.50;;
2728;SDS011;1372;47.956;7.830;2023-07-20T05:05:48;3.80;;;3.30;;
2728;SDS011;1372;47.956;7.830;2023-07-20T05:08:17;3.30;;;2.77;;
2728;SDS011;1372;47.956;7.830;2023-07-20T05:10:46;3.83;;;3.30;;
2728;SDS011;1372;47.956;7.830;2023-07-20T05:13:16;3.20;;;3.00;;
2728;SDS011;1372;47.956;7.830;2023-07-20T05:15:44;3.47;;;3.10;;
2728;SDS011;1372;47.956;7.830;2023-07-20T05:18:13;3.27;;;2.80;;
2728;SDS011;1372;47.956;7.830;2023-07-20T05:20:46;4.20;;;3.00;;
2728;SDS011;1372;47.956;7.830;2023-07-20T05:23:17;3.47;;;3.17;;
2728;SDS011;1372;47.956;7.830;2023-07-20T05:25:47;3.37;;;2.83;;
2728;SDS011;1372;47.956;7.830;2023-07-20T05:28:25;3.73;;;3.10;;
2728;SDS011;1372;47.956;7.830;2023-07-20T05:30:55;3.00;;;2.80;;
2728;SDS011;1372;47.956;7.830;2023-07-20T05:33:26;3.27;;;2.77;;
2728;SDS011;1372;47.956;7.830;2023-07-20T05:35:56;3.40;;;3.10;;
2728;SDS011;1372;47.956;7.830;2023-07-20T05:38:26;3.50;;;2.80;;
2728;SDS011;1372;47.956;7.830;2023-07-20T05:40:59;3.63;;;3.30;;
2728;SDS011;1372;47.956;7.830;2023-07-20T05:43:30;3.50;;;2.97;;
2728;SDS011;1372;47.956;7.830;2023-07-20T05:45:59;3.63;;;3.30;;
2728;SDS011;1372;47.956;7.830;2023-07-20T05:48:28;3.83;;;3.30;;
2728;SDS011;1372;47.956;7.830;2023-07-20T05:50:58;5.23;;;4.17;;
2728;SDS011;1372;47.956;7.830;2023-07-20T05:53:27;4.27;;;3.73;;
2728;SDS011;1372;47.956;7.830;2023-07-20T05:55:56;3.40;;;3.10;;
2728;SDS011;1372;47.956;7.830;2023-07-20T05:58:25;3.73;;;3.10;;
2728;SDS011;1372;47.956;7.830;2023-07-20T06:00:54;5.33;;;3.50;;
2728;SDS011;1372;47.956;7.830;2023-07-20T06:03:23;3.87;;;3.20;;
2728;SDS011;1372;47.956;7.830;2023-07-20T06:05:52;3.40;;;3.10;;
2728;SDS011;1372;47.956;7.830;2023-07-20T06:08:29;3.10;;;2.80;;
2728;SDS011;1372;47.956;7.830;2023-07-20T06:10:58;3.40;;;2.90;;
2728;SDS011;1372;47.956;7.830;2023-07-20T06:13:30;3.60;;;3.30;;
2728;SDS011;1372;47.956;7.830;2023-07-20T06:15:58;3.10;;;2.80;;
2728;SDS011;1372;47.956;7.830;2023-07-20T06:18:28;4.10;;;3.70;;
2728;SDS011;1372;47.956;7.830;2023-07-20T06:20:59;3.47;;;3.17;;
2728;SDS011;1372;47.956;7.830;2023-07-20T06:23:29;4.13;;;3.40;;
2728;SDS011;1372;47.956;7.830;2023-07-20T06:25:58;4.97;;;2.93;;
2728;SDS011;1372;47.956;7.830;2023-07-20T06:28:27;4.10;;;3.70;;
2728;SDS011;1372;47.956;7.830;2023-07-20T06:30:59;3.23;;;2.90;;
2728;SDS011;1372;47.956;7.830;2023-07-20T06:33:29;3.50;;;3.20;;
2728;SDS011;1372;47.956;7.830;2023-07-20T06:35:59;4.70;;;3.30;;
2728;SDS011;1372;47.956;7.830;2023-07-20T06:38:29;3.90;;;3.43;;
2728;SDS011;1372;47.956;7.830;2023-07-20T06:40:58;3.47;;;3.10;;
2728;SDS011;1372;47.956;7.830;2023-07-20T06:43:30;4.53;;;3.50;;
2728;SDS011;1372;47.956;7.830;2023-07-20T06:46:02;3.77;;;3.40;;
2728;SDS011;1372;47.956;7.830;2023-07-20T06:48:34;3.10;;;2.73;;
2728;SDS011;1372;47.956;7.830;2023-07-20T06:51:24;3.83;;;3.17;;
2728;SDS011;1372;47.956;7.830;2023-07-20T06:53:53;4.60;;;3.83;;
2728;SDS011;1372;47.956;7.830;2023-07-20T06:56:22;3.30;;;3.00;;
2728;SDS011;1372;47.956;7.830;2023-07-20T06:58:51;3.37;;;3.07;;
2728;SDS011;1372;47.956;7.830;2023-07-20T07:01:23;4.33;;;3.33;;
2728;SDS011;1372;47.956;7.830;2023-07-20T07:03:55;6.73;;;3.40;;
2728;SDS011;1372;47.956;7.830;2023-07-20T07:06:25;2.83;;;2.63;;
2728;SDS011;1372;47.956;7.830;2023-07-20T07:08:55;5.70;;;3.37;;
2728;SDS011;1372;47.956;7.830;2023-07-20T07:11:24;3.67;;;3.37;;
2728;SDS011;1372;47.956;7.830;2023-07-20T07:13:52;4.80;;;3.47;;
2728;SDS011;1372;47.956;7.830;2023-07-20T07:16:23;4.50;;;3.73;;
2728;SDS011;1372;47.956;7.830;2023-07-20T07:18:52;3.73;;;3.43;;
2728;SDS011;1372;47.956;7.830;2023-07-20T07:21:27;3.43;;;3.13;;
2728;SDS011;1372;47.956;7.830;2023-07-20T07:23:56;3.50;;;2.97;;
2728;SDS011;1372;47.956;7.830;2023-07-20T07:26:28;3.80;;;3.50;;
2728;SDS011;1372;47.956;7.830;2023-07-20T07:28:57;4.60;;;4.13;;
2728;SDS011;1372;47.956;7.830;2023-07-20T07:31:26;3.80;;;3.03;;
2728;SDS011;1372;47.956;7.830;2023-07-20T07:33:56;3.77;;;3.33;;
2728;SDS011;1372;47.956;7.830;2023-07-20T07:36:25;3.70;;;3.00;;
2728;SDS011;1372;47.956;7.830;2023-07-20T07:38:59;3.43;;;3.13;;
2728;SDS011;1372;47.956;7.830;2023-07-20T07:41:48;3.90;;;3.50;;
2728;SDS011;1372;47.956;7.830;2023-07-20T07:44:17;3.77;;;3.47;;
2728;SDS011;1372;47.956;7.830;2023-07-20T07:46:48;4.20;;;3.67;;
2728;SDS011;1372;47.956;7.830;2023-07-20T07:49:17;3.37;;;3.17;;
2728;SDS011;1372;47.956;7.830;2023-07-20T07:51:48;3.90;;;3.60;;
2728;SDS011;1372;47.956;7.830;2023-07-20T07:54:17;4.50;;;3.33;;
2728;SDS011;1372;47.956;7.830;2023-07-20T07:56:46;4.30;;;3.33;;
2728;SDS011;1372;47.956;7.830;2023-07-20T07:59:18;3.70;;;3.30;;
2728;SDS011;1372;47.956;7.830;2023-07-20T08:01:46;3.87;;;3.33;;
2728;SDS011;1372;47.956;7.830;2023-07-20T08:04:15;3.57;;;3.23;;
2728;SDS011;1372;47.956;7.830;2023-07-20T08:06:44;4.13;;;3.73;;
2728;SDS011;1372;47.956;7.830;2023-07-20T08:09:15;5.50;;;3.90;;
2728;SDS011;1372;47.956;7.830;2023-07-20T08:11:44;3.47;;;3.00;;
2728;SDS011;1372;47.956;7.830;2023-07-20T08:14:15;3.60;;;3.30;;
2728;SDS011;1372;47.956;7.830;2023-07-20T08:16:44;4.27;;;3.50;;
2728;SDS011;1372;47.956;7.830;2023-07-20T08:19:14;4.13;;;3.27;;
2728;SDS011;1372;47.956;7.830;2023-07-20T08:21:43;3.67;;;3.10;;
2728;SDS011;1372;47.956;7.830;2023-07-20T08:24:14;3.33;;;3.00;;
2728;SDS011;1372;47.956;7.830;2023-07-20T08:26:44;5.23;;;3.37;;
2728;SDS011;1372;47.956;7.830;2023-07-20T08:29:13;4.30;;;2.90;;
2728;SDS011;1372;47.956;7.830;2023-07-20T08:31:42;5.43;;;3.10;;
2728;SDS011;1372;47.956;7.830;2023-07-20T08:34:12;3.73;;;3.27;;
2728;SDS011;1372;47.956;7.830;2023-07-20T08:36:55;3.57;;;3.27;;
2728;SDS011;1372;47.956;7.830;2023-07-20T08:39:25;2.97;;;2.73;;
2728;SDS011;1372;47.956;7.830;2023-07-20T08:41:54;3.47;;;3.17;;
2728;SDS011;1372;47.956;7.830;2023-07-20T08:44:25;3.63;;;2.83;;
2728;SDS011;1372;47.956;7.830;2023-07-20T08:46:54;4.37;;;3.10;;
2728;SDS011;1372;47.956;7.830;2023-07-20T08:49:24;5.33;;;3.60;;
2728;SDS011;1372;47.956;7.830;2023-07-20T08:51:54;3.33;;;3.03;;
2728;SDS011;1372;47.956;7.830;2023-07-20T08:54:22;3.30;;;3.00;;
2728;SDS011;1372;47.956;7.830;2023-07-20T08:56:54;4.63;;;2.70;;
2728;SDS011;1372;47.956;7.830;2023-07-20T08:59:25;2.97;;;2.70;;
2728;SDS011;1372;47.956;7.830;2023-07-20T09:01:55;4.63;;;2.70;;
2728;SDS011;1372;47.956;7.830;2023-07-20T09:04:26;3.53;;;3.20;;
2728;SDS011;1372;47.956;7.830;2023-07-20T09:06:55;3.60;;;3.30;;
2728;SDS011;1372;47.956;7.830;2023-07-20T09:09:26;4.00;;;3.23;;
2728;SDS011;1372;47.956;7.830;2023-07-20T09:11:55;3.47;;;3.17;;
2728;SDS011;1372;47.956;7.830;2023-07-20T09:14:25;3.90;;;2.90;;
2728;SDS011;1372;47.956;7.830;2023-07-20T09:16:55;3.40;;;2.80;;
2728;SDS011;1372;47.956;7.830;2023-07-20T09:19:26;3.80;;;3.27;;
2728;SDS011;1372;47.956;7.830;2023-07-20T09:21:55;2.70;;;2.50;;
2728;SDS011;1372;47.956;7.830;2023-07-20T09:24:28;3.27;;;2.90;;
2728;SDS011;1372;47.956;7.830;2023-07-20T09:26:57;4.13;;;2.83;;
2728;SDS011;1372;47.956;7.830;2023-07-20T09:29:30;2.87;;;2.67;;
2728;SDS011;1372;47.956;7.830;2023-07-20T09:32:00;2.93;;;2.70;;
2728;SDS011;1372;47.956;7.830;2023-07-20T09:34:30;4.43;;;2.70;;
2728;SDS011;1372;47.956;7.830;2023-07-20T09:37:02;2.90;;;2.60;;
2728;SDS011;1372;47.956;7.830;2023-07-20T09:39:35;2.60;;;2.30;;
2728;SDS011;1372;47.956;7.830;2023-07-20T09:42:15;4.57;;;3.10;;
2728;SDS011;1372;47.956;7.830;2023-07-20T09:44:47;2.83;;;2.63;;
2728;SDS011;1372;47.956;7.830;2023-07-20T09:47:23;3.00;;;2.80;;
2728;SDS011;1372;47.956;7.830;2023-07-20T09:49:57;3.00;;;2.70;;
2728;SDS011;1372;47.956;7.830;2023-07-20T09:52:33;3.10;;;2.53;;
2728;SDS011;1372;47.956;7.830;2023-07-20T09:55:08;3.90;;;2.80;;
2728;SDS011;1372;47.956;7.830;2023-07-20T09:57:38;3.40;;;2.60;;
2728;SDS011;1372;47.956;7.830;2023-07-20T10:00:09;3.57;;;2.80;;
2728;SDS011;1372;47.956;7.830;2023-07-20T10:02:43;2.50;;;2.30;;
2728;SDS011;1372;47.956;7.830;2023-07-20T10:05:15;3.20;;;2.10;;
2728;SDS011;1372;47.956;7.830;2023-07-20T10:07:46;3.80;;;2.83;;
2728;SDS011;1372;47.956;7.830;2023-07-20T10:10:18;2.93;;;2.70;;
2728;SDS011;1372;47.956;7.830;2023-07-20T10:12:48;3.03;;;2.20;;
2728;SDS011;1372;47.956;7.830;2023-07-20T10:15:20;4.17;;;2.73;;
2728;SDS011;1372;47.956;7.830;2023-07-20T10:17:57;2.27;;;2.10;;
2728;SDS011;1372;47.956;7.830;2023-07-20T10:20:35;3.07;;;2.50;;
2728;SDS011;1372;47.956;7.830;2023-07-20T10:23:28;2.60;;;2.33;;
2728;SDS011;1372;47.956;7.830;2023-07-20T10:25:59;2.70;;;2.33;;
2728;SDS011;1372;47.956;7.830;2023-07-20T10:28:30;2.50;;;2.30;;
2728;SDS011;1372;47.956;7.830;2023-07-20T10:30:59;2.40;;;2.20;;
2728;SDS011;1372;47.956;7.830;2023-07-20T10:33:28;2.30;;;2.10;;
2728;SDS011;1372;47.956;7.830;2023-07-20T10:36:03;2.13;;;2.03;;
2728;SDS011;1372;47.956;7.830;2023-07-20T10:38:40;4.30;;;2.37;;
2728;SDS011;1372;47.956;7.830;2023-07-20T10:41:17;2.90;;;2.23;;
2728;SDS011;1372;47.956;7.830;2023-07-20T10:44:00;4.07;;;2.47;;
2728;SDS011;1372;47.956;7.830;2023-07-20T10:46:33;3.57;;;2.20;;
2728;SDS011;1372;47.956;7.830;2023-07-20T10:49:11;3.30;;;2.57;;
2728;SDS011;1372;47.956;7.830;2023-07-20T10:51:42;3.17;;;2.90;;
2728;SDS011;1372;47.956;7.830;2023-07-20T10:54:33;2.80;;;2.33;;
2728;SDS011;1372;47.956;7.830;2023-07-20T10:57:31;2.50;;;2.27;;
2728;SDS011;1372;47.956;7.830;2023-07-20T11:00:10;2.77;;;2.47;;
2728;SDS011;1372;47.956;7.830;2023-07-20T11:02:42;2.60;;;2.40;;
2728;SDS011;1372;47.956;7.830;2023-07-20T11:08:16;2.70;;;2.00;;
2728;SDS011;1372;47.956;7.830;2023-07-20T11:13:56;2.43;;;2.23;;
2728;SDS011;1372;47.956;7.830;2023-07-20T11:16:39;2.30;;;2.13;;
2728;SDS011;1372;47.956;7.830;2023-07-20T11:19:14;2.63;;;2.10;;
2728;SDS011;1372;47.956;7.830;2023-07-20T11:21:51;3.37;;;2.40;;
2728;SDS011;1372;47.956;7.830;2023-07-20T11:24:27;2.13;;;2.03;;
2728;SDS011;1372;47.956;7.830;2023-07-20T11:26:57;2.17;;;1.97;;
2728;SDS011;1372;47.956;7.830;2023-07-20T11:29:27;2.30;;;2.10;;
2728;SDS011;1372;47.956;7.830;2023-07-20T11:32:01;2.33;;;2.23;;
2728;SDS011;1372;47.956;7.830;2023-07-20T11:34:34;2.33;;;2.13;;
2728;SDS011;1372;47.956;7.830;2023-07-20T11:37:05;3.07;;;2.57;;
2728;SDS011;1372;47.956;7.830;2023-07-20T11:39:41;2.27;;;2.17;;
2728;SDS011;1372;47.956;7.830;2023-07-20T11:42:09;3.30;;;2.80;;
2728;SDS011;1372;47.956;7.830;2023-07-20T11:45:03;3.40;;;2.53;;
2728;SDS011;1372;47.956;7.830;2023-07-20T11:47:39;2.33;;;2.00;;
2728;SDS011;1372;47.956;7.830;2023-07-20T11:50:09;3.03;;;2.37;;
2728;SDS011;1372;47.956;7.830;2023-07-20T11:52:42;2.53;;;2.33;;
2728;SDS011;1372;47.956;7.830;2023-07-20T11:55:12;2.43;;;2.23;;
2728;SDS011;1372;47.956;7.830;2023-07-20T11:58:00;4.23;;;2.30;;
2728;SDS011;1372;47.956;7.830;2023-07-20T12:00:39;2.40;;;2.10;;
2728;SDS011;1372;47.956;7.830;2023-07-20T12:03:13;2.33;;;1.90;;
2728;SDS011;1372;47.956;7.830;2023-07-20T12:05:42;2.20;;;1.97;;
2728;SDS011;1372;47.956;7.830;2023-07-20T12:08:26;2.27;;;2.07;;
2728;SDS011;1372;47.956;7.830;2023-07-20T12:10:57;1.97;;;1.83;;
2728;SDS011;1372;47.956;7.830;2023-07-20T12:13:37;2.63;;;2.30;;
2728;SDS011;1372;47.956;7.830;2023-07-20T12:16:12;4.07;;;2.63;;
2728;SDS011;1372;47.956;7.830;2023-07-20T12:18:43;3.60;;;2.60;;
2728;SDS011;1372;47.956;7.830;2023-07-20T12:21:12;2.70;;;2.50;;
2728;SDS011;1372;47.956;7.830;2023-07-20T12:23:41;2.30;;;2.10;;
2728;SDS011;1372;47.956;7.830;2023-07-20T12:26:11;2.30;;;2.10;;
2728;SDS011;1372;47.956;7.830;2023-07-20T12:28:43;2.90;;;2.50;;
2728;SDS011;1372;47.956;7.830;2023-07-20T12:31:13;2.67;;;2.47;;
2728;SDS011;1372;47.956;7.830;2023-07-20T12:33:43;3.67;;;2.57;;
2728;SDS011;1372;47.956;7.830;2023-07-20T12:36:12;2.57;;;2.37;;
2728;SDS011;1372;47.956;7.830;2023-07-20T12:38:41;3.20;;;2.73;;
2728;SDS011;1372;47.956;7.830;2023-07-20T12:41:10;2.77;;;2.43;;
2728;SDS011;1372;47.956;7.830;2023-07-20T12:43:42;2.40;;;2.20;;
2728;SDS011;1372;47.956;7.830;2023-07-20T12:46:14;2.50;;;2.30;;
2728;SDS011;1372;47.956;7.830;2023-07-20T12:48:43;2.83;;;2.63;;
2728;SDS011;1372;47.956;7.830;2023-07-20T12:51:14;3.43;;;2.20;;
2728;SDS011;1372;47.956;7.830;2023-07-20T12:53:44;2.10;;;1.90;;
2728;SDS011;1372;47.956;7.830;2023-07-20T12:56:13;3.13;;;2.80;;
2728;SDS011;1372;47.956;7.830;2023-07-20T12:58:45;2.20;;;2.00;;
2728;SDS011;1372;47.956;7.830;2023-07-20T13:01:21;2.40;;;2.10;;
2728;SDS011;1372;47.956;7.830;2023-07-20T13:03:51;2.23;;;2.03;;
2728;SDS011;1372;47.956;7.830;2023-07-20T13:06:23;2.40;;;2.07;;
2728;SDS011;1372;47.956;7.830;2023-07-20T13:08:54;3.23;;;2.10;;
2728;SDS011;1372;47.956;7.830;2023-07-20T13:11:25;2.50;;;2.30;;
2728;SDS011;1372;47.956;7.830;2023-07-20T13:13:54;2.43;;;1.90;;
2728;SDS011;1372;47.956;7.830;2023-07-20T13:16:24;1.97;;;1.83;;
2728;SDS011;1372;47.956;7.830;2023-07-20T13:18:54;3.00;;;2.00;;
2728;SDS011;1372;47.956;7.830;2023-07-20T13:21:23;2.10;;;1.90;;
2728;SDS011;1372;47.956;7.830;2023-07-20T13:23:53;2.03;;;1.83;;
2728;SDS011;1372;47.956;7.830;2023-07-20T13:26:22;2.07;;;1.97;;
2728;SDS011;1372;47.956;7.830;2023-07-20T13:28:52;2.33;;;2.13;;
2728;SDS011;1372;47.956;7.830;2023-07-20T13:31:22;2.80;;;2.30;;
2728;SDS011;1372;47.956;7.830;2023-07-20T13:33:53;2.70;;;2.13;;
2728;SDS011;1372;47.956;7.830;2023-07-20T13:36:25;2.13;;;1.93;;
2728;SDS011;1372;47.956;7.830;2023-07-20T13:38:58;3.13;;;2.27;;
2728;SDS011;1372;47.956;7.830;2023-07-20T13:41:28;2.10;;;1.90;;
2728;SDS011;1372;47.956;7.830;2023-07-20T13:43:59;2.60;;;2.20;;
2728;SDS011;1372;47.956;7.830;2023-07-20T13:46:34;2.30;;;2.10;;
2728;SDS011;1372;47.956;7.830;2023-07-20T13:49:08;2.50;;;2.30;;
2728;SDS011;1372;47.956;7.830;2023-07-20T13:51:39;3.40;;;2.40;;
2728;SDS011;1372;47.956;7.830;2023-07-20T13:54:09;4.00;;;3.10;;
2728;SDS011;1372;47.956;7.830;2023-07-20T13:56:41;4.10;;;2.90;;
2728;SDS011;1372;47.956;7.830;2023-07-20T13:59:11;2.50;;;2.30;;
2728;SDS011;1372;47.956;7.830;2023-07-20T14:01:40;2.50;;;2.07;;
2728;SDS011;1372;47.956;7.830;2023-07-20T14:04:14;3.40;;;2.13;;
2728;SDS011;1372;47.956;7.830;2023-07-20T14:06:43;2.10;;;2.00;;
2728;SDS011;1372;47.956;7.830;2023-07-20T14:09:12;2.80;;;2.10;;
2728;SDS011;1372;47.956;7.830;2023-07-20T14:11:41;2.93;;;2.37;;
2728;SDS011;1372;47.956;7.830;2023-07-20T14:14:14;2.30;;;2.10;;
2728;SDS011;1372;47.956;7.830;2023-07-20T14:16:43;2.50;;;2.30;;
2728;SDS011;1372;47.956;7.830;2023-07-20T14:19:17;2.40;;;2.10;;
2728;SDS011;1372;47.956;7.830;2023-07-20T14:21:46;3.73;;;2.40;;
2728;SDS011;1372;47.956;7.830;2023-07-20T14:24:17;3.20;;;2.10;;
2728;SDS011;1372;47.956;7.830;2023-07-20T14:26:46;2.60;;;2.40;;
2728;SDS011;1372;47.956;7.830;2023-07-20T14:29:18;2.20;;;2.10;;
2728;SDS011;1372;47.956;7.830;2023-07-20T14:31:50;2.30;;;1.90;;
2728;SDS011;1372;47.956;7.830;2023-07-20T14:34:22;2.17;;;1.97;;
2728;SDS011;1372;47.956;7.830;2023-07-20T14:36:51;2.60;;;2.40;;
2728;SDS011;1372;47.956;7.830;2023-07-20T14:39:20;2.80;;;2.30;;
2728;SDS011;1372;47.956;7.830;2023-07-20T14:42:00;2.03;;;1.90;;
2728;SDS011;1372;47.956;7.830;2023-07-20T14:44:42;2.63;;;2.43;;
2728;SDS011;1372;47.956;7.830;2023-07-20T14:47:12;2.33;;;2.13;;
2728;SDS011;1372;47.956;7.830;2023-07-20T14:49:43;2.40;;;2.20;;
2728;SDS011;1372;47.956;7.830;2023-07-20T14:52:13;2.10;;;2.00;;
2728;SDS011;1372;47.956;7.830;2023-07-20T14:54:42;2.93;;;1.90;;
2728;SDS011;1372;47.956;7.830;2023-07-20T14:57:11;2.40;;;2.20;;
2728;SDS011;1372;47.956;7.830;2023-07-20T14:59:42;2.63;;;2.43;;
2728;SDS011;1372;47.956;7.830;2023-07-20T15:02:11;2.57;;;2.20;;
2728;SDS011;1372;47.956;7.830;2023-07-20T15:04:46;2.73;;;2.17;;
2728;SDS011;1372;47.956;7.830;2023-07-20T15:07:16;1.87;;;1.77;;
2728;SDS011;1372;47.956;7.830;2023-07-20T15:09:46;2.30;;;2.10;;
2728;SDS011;1372;47.956;7.830;2023-07-20T15:12:18;2.77;;;2.33;;
2728;SDS011;1372;47.956;7.830;2023-07-20T15:14:50;3.23;;;2.60;;
2728;SDS011;1372;47.956;7.830;2023-07-20T15:17:33;2.50;;;2.00;;
2728;SDS011;1372;47.956;7.830;2023-07-20T15:20:05;1.97;;;1.87;;
2728;SDS011;1372;47.956;7.830;2023-07-20T15:22:36;2.40;;;2.00;;
2728;SDS011;1372;47.956;7.830;2023-07-20T15:25:06;2.33;;;2.17;;
2728;SDS011;1372;47.956;7.830;2023-07-20T15:27:39;2.70;;;1.93;;
2728;SDS011;1372;47.956;7.830;2023-07-20T15:30:12;2.60;;;2.40;;
2728;SDS011;1372;47.956;7.830;2023-07-20T15:33:01;2.67;;;2.47;;
2728;SDS011;1372;47.956;7.830;2023-07-20T15:35:34;2.20;;;2.03;;
2728;SDS011;1372;47.956;7.830;2023-07-20T15:38:04;4.00;;;2.27;;
2728;SDS011;1372;47.956;7.830;2023-07-20T15:40:33;2.30;;;2.13;;
2728;SDS011;1372;47.956;7.830;2023-07-20T15:43:05;2.77;;;2.53;;
2728;SDS011;1372;47.956;7.830;2023-07-20T15:45:39;2.10;;;1.77;;
2728;SDS011;1372;47.956;7.830;2023-07-20T15:48:09;3.23;;;2.30;;
2728;SDS011;1372;47.956;7.830;2023-07-20T15:50:39;2.70;;;2.00;;